createdAt,value
2019-04-20T00:02:35.926Z,7.60
2019-04-20T00:05:41.457Z,6.37
2019-04-20T00:08:47.557Z,7.12
2019-04-20T00:12:03.832Z,6.65
2019-04-20T00:15:02.877Z,5.45
2019-04-20T00:18:11.489Z,6.42
2019-04-20T00:21:43.028Z,5.42
2019-04-20T00:25:04.246Z,6.42
2019-04-20T00:28:25.414Z,5.65
2019-04-20T00:31:29.707Z,6.15
2019-04-20T00:34:28.274Z,5.95
2019-04-20T00:37:29.779Z,5.85
2019-04-20T00:40:37.315Z,7.10
2019-04-20T00:43:47.129Z,5.58
2019-04-20T00:47:04.316Z,5.45
2019-04-20T00:50:19.902Z,5.78
2019-04-20T00:53:19.558Z,7.25
2019-04-20T00:56:16.180Z,5.40
2019-04-20T00:59:35.526Z,8.65
2019-04-20T01:02:45.497Z,5.45
2019-04-20T01:06:12.117Z,5.10
2019-04-20T01:09:05.560Z,8.60
2019-04-20T01:12:20.403Z,6.28
2019-04-20T01:15:32.547Z,6.95
2019-04-20T01:18:30.209Z,5.55
2019-04-20T01:21:36.857Z,6.92
2019-04-20T01:24:45.410Z,7.12
2019-04-20T01:28:07.743Z,4.95
2019-04-20T01:31:10.059Z,5.97
2019-04-20T01:34:21.356Z,6.53
2019-04-20T01:37:26.059Z,7.17
2019-04-20T01:40:23.260Z,6.15
2019-04-20T01:43:29.144Z,7.10
2019-04-20T01:46:38.415Z,6.03
2019-04-20T01:49:46.696Z,6.53
2019-04-20T01:53:01.575Z,6.05
2019-04-20T01:56:12.479Z,7.47
2019-04-20T01:59:30.910Z,5.65
2019-04-20T02:02:53.026Z,8.15
2019-04-20T02:06:02.254Z,6.80
2019-04-20T02:09:06.485Z,7.00
2019-04-20T02:12:21.673Z,4.97
2019-04-20T02:15:31.762Z,5.90
2019-04-20T02:18:40.114Z,6.47
2019-04-20T02:21:51.980Z,6.25
2019-04-20T02:24:44.703Z,5.12
2019-04-20T02:27:55.553Z,6.85
2019-04-20T02:31:33.063Z,5.80
2019-04-20T02:35:03.396Z,7.50
2019-04-20T02:38:25.045Z,7.20
2019-04-20T02:41:17.849Z,5.72
2019-04-20T02:54:14.129Z,8.15
2019-04-20T02:57:03.387Z,6.37
2019-04-20T03:00:08.708Z,6.25
2019-04-20T03:02:53.325Z,6.42
2019-04-20T03:06:05.700Z,6.05
2019-04-20T03:09:15.511Z,5.83
2019-04-20T03:12:29.177Z,6.10
2019-04-20T03:15:32.775Z,6.78
2019-04-20T03:18:35.050Z,6.95
2019-04-20T03:21:52.666Z,5.12
2019-04-20T03:24:56.594Z,6.00
2019-04-20T03:28:05.485Z,11.45
2019-04-20T03:34:55.593Z,6.90
2019-04-20T03:37:34.526Z,5.95
2019-04-20T03:40:31.167Z,7.22
2019-04-20T03:43:22.157Z,6.95
2019-04-20T03:46:36.696Z,10.10
2019-04-20T03:50:02.717Z,6.12
2019-04-20T03:53:39.748Z,7.08
2019-04-20T03:56:42.044Z,10.60
2019-04-20T04:00:01.851Z,6.90
2019-04-20T04:03:21.437Z,9.78
2019-04-20T04:06:17.886Z,8.10
2019-04-20T04:09:25.693Z,8.10
2019-04-20T04:12:58.890Z,7.62
2019-04-20T04:16:08.765Z,9.58
2019-04-20T04:19:20.781Z,5.42
2019-04-20T04:22:37.934Z,8.13
2019-04-20T04:25:40.963Z,9.65
2019-04-20T04:28:47.608Z,6.53
2019-04-20T04:32:09.338Z,7.35
2019-04-20T04:35:03.260Z,7.85
2019-04-20T04:38:12.689Z,10.05
2019-04-20T04:45:38.681Z,8.98
2019-04-20T04:48:48.165Z,6.30
2019-04-20T04:52:02.167Z,10.98
2019-04-20T04:55:11.255Z,9.68
2019-04-20T04:58:10.769Z,8.20
2019-04-20T05:01:25.119Z,6.30
2019-04-20T05:05:03.926Z,5.97
2019-04-20T05:08:02.774Z,4.83
2019-04-20T05:11:00.617Z,4.95
2019-04-20T05:14:10.975Z,4.62
2019-04-20T05:17:40.863Z,7.08
2019-04-20T05:20:46.963Z,6.33
2019-04-20T05:24:09.998Z,5.17
2019-04-20T05:27:39.162Z,6.58
2019-04-20T05:30:26.618Z,4.35
2019-04-20T05:33:58.473Z,4.78
2019-04-20T05:36:55.624Z,4.42
2019-04-20T05:40:10.421Z,5.65
2019-04-20T05:43:25.002Z,5.65
2019-04-20T05:46:34.599Z,3.83
2019-04-20T05:49:34.789Z,5.22
2019-04-20T05:52:56.210Z,5.62
2019-04-20T05:55:50.281Z,3.95
2019-04-20T05:58:59.420Z,3.83
2019-04-20T06:02:11.221Z,4.50
2019-04-20T06:05:17.722Z,6.17
2019-04-20T06:08:33.766Z,4.42
2019-04-20T06:11:35.239Z,3.83
2019-04-20T06:14:52.356Z,4.78
2019-04-20T06:18:08.887Z,4.20
2019-04-20T06:21:26.493Z,7.28
2019-04-20T06:24:42.243Z,3.67
2019-04-20T06:27:41.013Z,3.52
2019-04-20T06:30:41.198Z,4.53
2019-04-20T06:37:34.897Z,4.85
2019-04-20T06:41:00.854Z,4.78
2019-04-20T06:43:46.238Z,4.65
2019-04-20T06:47:00.826Z,3.70
2019-04-20T06:50:00.461Z,4.30
2019-04-20T06:53:31.049Z,4.10
2019-04-20T06:56:29.565Z,4.30
2019-04-20T06:59:40.486Z,8.28
2019-04-20T07:02:44.195Z,8.88
2019-04-20T07:05:54.674Z,6.78
2019-04-20T07:09:06.422Z,8.03
2019-04-20T07:12:03.148Z,6.67
2019-04-20T07:15:06.507Z,6.55
2019-04-20T07:18:24.541Z,4.08
2019-04-20T07:21:56.228Z,7.22
2019-04-20T07:24:56.802Z,5.95
2019-04-20T07:27:58.239Z,6.47
2019-04-20T07:31:08.685Z,5.50
2019-04-20T07:34:15.698Z,8.45
2019-04-20T07:40:45.351Z,5.72
2019-04-20T07:44:04.652Z,3.65
2019-04-20T07:47:08.989Z,4.40
2019-04-20T07:50:04.962Z,9.45
2019-04-20T07:53:12.524Z,5.97
2019-04-20T07:56:25.819Z,5.15
2019-04-20T07:59:23.364Z,13.98
2019-04-20T08:03:07.116Z,8.45
2019-04-20T08:06:12.535Z,6.50
2019-04-20T08:09:22.042Z,11.50
2019-04-20T08:12:56.866Z,8.55
2019-04-20T08:16:00.746Z,21.48
2019-04-20T08:19:04.177Z,28.17
2019-04-20T08:22:15.152Z,71.95
2019-04-20T08:25:14.203Z,39.25
2019-04-20T08:28:31.591Z,19.62
2019-04-20T08:32:04.133Z,16.50
2019-04-20T08:35:14.960Z,15.78
2019-04-20T08:41:23.255Z,19.20
2019-04-20T08:47:51.827Z,13.62
2019-04-20T08:50:50.715Z,13.50
2019-04-20T08:53:56.957Z,9.50
2019-04-20T08:56:52.209Z,11.97
2019-04-20T08:59:54.364Z,12.47
2019-04-20T09:03:12.334Z,10.88
2019-04-20T09:06:23.785Z,8.03
2019-04-20T09:09:45.528Z,7.72
2019-04-20T09:12:40.540Z,7.78
2019-04-20T09:15:34.084Z,14.07
2019-04-20T09:18:50.362Z,9.45
2019-04-20T09:22:01.641Z,8.00
2019-04-20T09:28:38.371Z,5.55
2019-04-20T09:31:51.947Z,6.25
2019-04-20T09:35:06.682Z,9.18
2019-04-20T09:38:12.059Z,7.87
2019-04-20T09:41:27.600Z,8.03
2019-04-20T09:44:11.145Z,9.38
2019-04-20T09:47:23.303Z,5.00
2019-04-20T09:50:43.588Z,7.25
2019-04-20T09:53:48.486Z,6.60
2019-04-20T09:57:04.992Z,5.97
2019-04-20T10:00:07.200Z,6.25
2019-04-20T10:03:04.337Z,7.67
2019-04-20T10:06:09.825Z,5.37
2019-04-20T10:09:15.742Z,6.30
2019-04-20T10:12:21.887Z,7.03
2019-04-20T10:15:31.240Z,6.22
2019-04-20T10:18:41.342Z,5.08
2019-04-20T10:21:45.684Z,5.72
2019-04-20T10:24:53.811Z,4.87
2019-04-20T10:28:01.227Z,5.53
2019-04-20T10:31:06.868Z,4.85
2019-04-20T10:34:13.497Z,5.25
2019-04-20T10:37:33.615Z,4.58
2019-04-20T10:40:51.229Z,6.08
2019-04-20T10:43:46.963Z,5.53
2019-04-20T10:46:53.355Z,4.80
2019-04-20T10:49:58.947Z,4.60
2019-04-20T10:53:07.847Z,5.17
2019-04-20T10:56:15.846Z,5.45
2019-04-20T10:59:23.450Z,4.95
2019-04-20T11:02:29.847Z,5.37
2019-04-20T11:05:36.041Z,4.50
2019-04-20T11:08:42.628Z,4.67
2019-04-20T11:11:48.344Z,3.50
2019-04-20T11:14:56.453Z,4.15
2019-04-20T11:18:03.719Z,4.05
2019-04-20T11:21:09.329Z,4.42
2019-04-20T11:24:16.376Z,5.47
2019-04-20T11:27:23.180Z,3.70
2019-04-20T11:30:30.144Z,3.55
2019-04-20T11:33:36.243Z,3.87
2019-04-20T11:36:43.356Z,3.83
2019-04-20T11:39:48.928Z,3.37
2019-04-20T11:42:55.383Z,4.42
2019-04-20T11:46:01.148Z,3.77
2019-04-20T11:49:13.113Z,3.52
2019-04-20T11:52:21.435Z,4.30
2019-04-20T11:55:27.005Z,4.30
2019-04-20T11:58:36.051Z,3.35
2019-04-20T12:02:08.223Z,3.50
2019-04-20T12:05:27.319Z,3.25
2019-04-20T12:08:25.038Z,4.17
2019-04-20T12:11:40.418Z,4.45
2019-04-20T12:14:40.850Z,5.28
2019-04-20T12:17:47.325Z,3.92
2019-04-20T12:20:54.849Z,3.25
2019-04-20T12:24:00.517Z,3.40
2019-04-20T12:27:07.164Z,3.70
2019-04-20T12:30:15.503Z,4.08
2019-04-20T12:33:24.533Z,3.52
2019-04-20T12:36:30.204Z,3.22
2019-04-20T12:39:37.259Z,3.87
2019-04-20T12:42:44.239Z,3.22
2019-04-20T12:45:51.689Z,3.02
2019-04-20T12:48:59.788Z,3.15
2019-04-20T12:52:08.458Z,2.85
2019-04-20T12:55:16.662Z,3.92
2019-04-20T12:58:22.810Z,3.30
2019-04-20T13:01:30.217Z,3.20
2019-04-20T13:04:37.278Z,3.95
2019-04-20T13:07:49.248Z,3.12
2019-04-20T13:11:06.652Z,2.92
2019-04-20T13:14:44.609Z,2.87
2019-04-20T13:17:54.239Z,4.67
2019-04-20T13:21:03.343Z,4.28
2019-04-20T13:24:13.557Z,2.98
2019-04-20T13:27:19.630Z,3.20
2019-04-20T13:30:27.922Z,2.65
2019-04-20T13:33:35.163Z,3.47
2019-04-20T13:36:44.178Z,2.65
2019-04-20T13:39:53.051Z,2.37
2019-04-20T13:43:01.418Z,3.17
2019-04-20T13:46:11.168Z,2.95
2019-04-20T13:49:16.909Z,3.25
2019-04-20T13:52:24.518Z,2.95
2019-04-20T13:55:31.640Z,3.10
2019-04-20T13:59:01.410Z,2.50
2019-04-20T14:02:36.050Z,2.50
2019-04-20T14:05:42.917Z,2.95
2019-04-20T14:08:49.876Z,2.40
2019-04-20T14:11:55.384Z,2.40
2019-04-20T14:15:02.863Z,2.90
2019-04-20T14:18:09.023Z,2.65
2019-04-20T14:21:16.732Z,3.62
2019-04-20T14:24:22.273Z,3.02
2019-04-20T14:27:28.831Z,2.83
2019-04-20T14:30:37.314Z,3.40
2019-04-20T14:33:44.639Z,3.80
2019-04-20T14:36:50.930Z,2.33
2019-04-20T14:39:56.592Z,2.58
2019-04-20T14:43:03.503Z,2.90
2019-04-20T14:46:08.969Z,2.42
2019-04-20T14:49:14.711Z,2.60
2019-04-20T14:52:22.044Z,2.77
2019-04-20T14:55:29.230Z,3.50
2019-04-20T14:59:02.765Z,2.37
2019-04-20T15:02:12.713Z,2.65
2019-04-20T15:05:19.451Z,2.42
2019-04-20T15:08:26.963Z,2.70
2019-04-20T15:11:34.719Z,3.15
2019-04-20T15:14:42.707Z,2.98
2019-04-20T15:17:55.450Z,3.83
2019-04-20T15:21:03.764Z,2.15
2019-04-20T15:24:11.857Z,2.52
2019-04-20T15:27:22.697Z,2.47
2019-04-20T15:30:29.948Z,3.00
2019-04-20T15:33:37.313Z,2.35
2019-04-20T15:36:44.687Z,2.47
2019-04-20T15:39:51.174Z,3.62
2019-04-20T15:43:04.344Z,2.27
2019-04-20T15:46:05.472Z,2.45
2019-04-20T15:49:10.949Z,2.10
2019-04-20T15:52:24.493Z,2.27
2019-04-20T15:55:32.047Z,3.37
2019-04-20T15:58:34.450Z,2.25
2019-04-20T16:01:51.461Z,2.65
2019-04-20T16:05:01.698Z,2.40
2019-04-20T16:08:22.202Z,2.33
2019-04-20T16:11:29.218Z,2.47
2019-04-20T16:14:38.013Z,2.90
2019-04-20T16:17:49.127Z,4.90
2019-04-20T16:21:00.455Z,8.50
2019-04-20T16:24:04.864Z,8.45
2019-04-20T16:27:36.073Z,7.60
2019-04-20T16:30:43.439Z,5.50
2019-04-20T16:33:52.347Z,4.58
2019-04-20T16:36:59.920Z,3.72
2019-04-20T16:40:07.951Z,6.10
2019-04-20T16:43:25.939Z,5.37
2019-04-20T16:46:25.940Z,4.00
2019-04-20T16:49:32.800Z,4.28
2019-04-20T16:52:39.017Z,3.50
2019-04-20T16:55:45.999Z,4.22
2019-04-20T16:58:57.273Z,4.65
2019-04-20T17:02:02.359Z,3.25
2019-04-20T17:05:09.265Z,3.60
2019-04-20T17:08:15.143Z,3.77
2019-04-20T17:11:34.008Z,4.42
2019-04-20T17:14:39.977Z,3.87
2019-04-20T17:17:49.208Z,4.95
2019-04-20T17:20:53.359Z,3.00
2019-04-20T17:24:01.490Z,5.92
2019-04-20T17:27:46.976Z,4.10
2019-04-20T17:31:09.270Z,7.97
2019-04-20T17:34:37.713Z,4.47
2019-04-20T17:37:27.392Z,5.55
2019-04-20T17:40:53.695Z,5.65
2019-04-20T17:44:00.284Z,8.38
2019-04-20T17:47:00.429Z,4.45
2019-04-20T17:50:17.294Z,5.33
2019-04-20T17:53:22.694Z,2.92
2019-04-20T17:56:17.039Z,6.22
2019-04-20T17:59:24.309Z,5.87
2019-04-20T18:02:58.950Z,3.85
2019-04-20T18:06:08.496Z,4.60
2019-04-20T18:09:06.677Z,2.55
2019-04-20T18:12:08.156Z,3.58
2019-04-20T18:15:33.560Z,3.67
2019-04-20T18:18:52.810Z,3.75
2019-04-20T18:21:51.840Z,3.90
2019-04-20T18:25:22.402Z,5.33
2019-04-20T18:28:19.430Z,4.65
2019-04-20T18:31:19.560Z,4.15
2019-04-20T18:35:06.270Z,3.77
2019-04-20T18:38:14.633Z,2.83
2019-04-20T18:41:30.803Z,2.72
2019-04-20T18:44:30.377Z,3.10
2019-04-20T18:47:50.969Z,3.70
2019-04-20T18:50:43.584Z,3.35
2019-04-20T18:53:50.000Z,2.83
2019-04-20T18:56:56.761Z,3.52
2019-04-20T19:00:04.245Z,4.05
2019-04-20T19:03:20.510Z,2.55
2019-04-20T19:06:18.540Z,3.25
2019-04-20T19:09:28.505Z,3.58
2019-04-20T19:12:44.010Z,2.87
2019-04-20T19:16:15.224Z,2.95
2019-04-20T19:19:37.419Z,3.00
2019-04-20T19:22:38.557Z,3.55
2019-04-20T19:25:45.792Z,2.65
2019-04-20T19:28:55.871Z,3.90
2019-04-20T19:32:17.920Z,3.62
2019-04-20T19:35:23.227Z,3.85
2019-04-20T19:38:22.618Z,4.08
2019-04-20T19:41:38.491Z,2.58
2019-04-20T19:44:45.175Z,3.15
2019-04-20T19:47:58.275Z,3.72
2019-04-20T19:51:13.929Z,2.50
2019-04-20T19:54:18.961Z,2.47
2019-04-20T19:57:24.050Z,2.47
2019-04-20T20:00:14.629Z,2.10
2019-04-20T20:03:19.950Z,3.83
2019-04-20T20:06:33.215Z,2.33
2019-04-20T20:09:39.575Z,2.20
2019-04-20T20:12:49.422Z,2.15
2019-04-20T20:15:52.550Z,2.58
2019-04-20T20:19:05.759Z,3.98
2019-04-20T20:22:17.415Z,4.05
2019-04-20T20:25:12.780Z,4.20
2019-04-20T20:28:31.113Z,3.77
2019-04-20T20:31:47.058Z,2.87
2019-04-20T20:34:43.376Z,4.58
2019-04-20T20:37:53.391Z,5.33
2019-04-20T20:41:05.647Z,3.40
2019-04-20T20:44:08.499Z,3.27
2019-04-20T20:47:36.878Z,3.92
2019-04-20T20:50:37.472Z,4.55
2019-04-20T20:53:39.960Z,2.72
2019-04-20T20:56:37.208Z,6.97
2019-04-20T20:59:52.813Z,2.75
2019-04-20T21:02:58.897Z,2.98
2019-04-20T21:05:59.948Z,2.87
2019-04-20T21:09:08.149Z,2.55
2019-04-20T21:12:18.085Z,4.25
2019-04-20T21:15:24.632Z,2.67
2019-04-20T21:18:47.515Z,2.52
2019-04-20T21:21:49.725Z,2.20
2019-04-20T21:24:51.456Z,2.98
2019-04-20T21:27:57.540Z,2.87
2019-04-20T21:31:08.105Z,3.52
2019-04-20T21:34:17.553Z,3.70
2019-04-20T21:37:23.060Z,3.35
2019-04-20T21:40:34.010Z,3.80
2019-04-20T21:43:40.511Z,4.97
2019-04-20T21:46:48.771Z,3.33
2019-04-20T21:50:09.560Z,3.83
2019-04-20T21:53:09.692Z,3.92
2019-04-20T21:56:08.014Z,3.08
2019-04-20T21:59:24.244Z,5.03
2019-04-20T22:02:51.374Z,4.25
2019-04-20T22:05:50.583Z,4.00
2019-04-20T22:09:00.423Z,3.47
2019-04-20T22:12:03.457Z,3.15
2019-04-20T22:15:17.829Z,3.10
2019-04-20T22:18:21.329Z,5.25
2019-04-20T22:21:35.594Z,3.45
2019-04-20T22:24:45.404Z,3.62
2019-04-20T22:27:40.535Z,3.47
2019-04-20T22:30:46.274Z,3.42
2019-04-20T22:33:52.385Z,3.90
2019-04-20T22:36:59.937Z,6.50
2019-04-20T22:40:06.943Z,10.70
2019-04-20T22:43:17.951Z,7.05
2019-04-20T22:46:24.797Z,7.85
2019-04-20T22:49:44.129Z,4.65
2019-04-20T22:52:44.399Z,8.40
2019-04-20T22:56:06.174Z,10.85
2019-04-20T22:59:02.177Z,6.30
2019-04-20T23:02:04.630Z,5.42
2019-04-20T23:05:10.920Z,6.28
2019-04-20T23:08:17.009Z,5.72
2019-04-20T23:11:27.206Z,10.25
2019-04-20T23:14:29.925Z,5.40
2019-04-20T23:17:40.709Z,7.33
2019-04-20T23:20:44.150Z,5.35
2019-04-20T23:23:53.756Z,5.37
2019-04-20T23:26:57.731Z,5.22
2019-04-20T23:30:11.020Z,3.85
2019-04-20T23:33:11.705Z,5.72
2019-04-20T23:36:19.327Z,4.08
2019-04-20T23:39:30.158Z,5.08
2019-04-20T23:42:43.790Z,5.17
2019-04-20T23:46:17.015Z,4.20
2019-04-20T23:49:54.279Z,4.95
2019-04-20T23:53:06.675Z,5.30
2019-04-20T23:55:54.003Z,4.67
2019-04-20T23:59:02.294Z,3.50
